sensor_id;sensor_type;location;lat;lon;timestamp;P1;durP1;ratioP1;P2;durP2;ratioP2
26486;SDS011;14425;56.136;40.360;2023-02-16T00:00:27;5.15;;;3.13;;
26486;SDS011;14425;56.136;40.360;2023-02-16T00:02:53;4.10;;;2.97;;
26486;SDS011;14425;56.136;40.360;2023-02-16T00:05:26;5.72;;;3.60;;
26486;SDS011;14425;56.136;40.360;2023-02-16T00:07:53;5.80;;;3.88;;
26486;SDS011;14425;56.136;40.360;2023-02-16T00:10:20;8.80;;;4.18;;
26486;SDS011;14425;56.136;40.360;2023-02-16T00:12:46;6.22;;;3.70;;
26486;SDS011;14425;56.136;40.360;2023-02-16T00:15:30;6.72;;;3.63;;
26486;SDS011;14425;56.136;40.360;2023-02-16T00:17:57;7.15;;;3.78;;
26486;SDS011;14425;56.136;40.360;2023-02-16T00:20:25;6.47;;;3.65;;
26486;SDS011;14425;56.136;40.360;2023-02-16T00:22:50;6.03;;;3.60;;
26486;SDS011;14425;56.136;40.360;2023-02-16T00:25:16;5.53;;;3.63;;
26486;SDS011;14425;56.136;40.360;2023-02-16T00:27:42;6.50;;;3.40;;
26486;SDS011;14425;56.136;40.360;2023-02-16T00:30:18;5.72;;;3.05;;
26486;SDS011;14425;56.136;40.360;2023-02-16T00:32:45;7.53;;;3.83;;
26486;SDS011;14425;56.136;40.360;2023-02-16T00:35:15;5.75;;;3.30;;
26486;SDS011;14425;56.136;40.360;2023-02-16T00:37:45;7.90;;;3.63;;
26486;SDS011;14425;56.136;40.360;2023-02-16T00:40:12;6.35;;;3.65;;
26486;SDS011;14425;56.136;40.360;2023-02-16T00:42:38;6.53;;;3.53;;
26486;SDS011;14425;56.136;40.360;2023-02-16T00:45:05;5.07;;;2.92;;
26486;SDS011;14425;56.136;40.360;2023-02-16T00:47:39;5.50;;;3.20;;
26486;SDS011;14425;56.136;40.360;2023-02-16T00:52:41;6.55;;;3.38;;
26486;SDS011;14425;56.136;40.360;2023-02-16T00:55:11;6.47;;;3.08;;
26486;SDS011;14425;56.136;40.360;2023-02-16T01:03:04;4.93;;;2.97;;
26486;SDS011;14425;56.136;40.360;2023-02-16T01:05:32;6.07;;;3.75;;
26486;SDS011;14425;56.136;40.360;2023-02-16T01:07:57;6.60;;;3.38;;
26486;SDS011;14425;56.136;40.360;2023-02-16T01:10:42;7.43;;;3.72;;
26486;SDS011;14425;56.136;40.360;2023-02-16T01:13:27;8.82;;;4.03;;
26486;SDS011;14425;56.136;40.360;2023-02-16T01:15:53;6.10;;;3.42;;
26486;SDS011;14425;56.136;40.360;2023-02-16T01:18:19;6.53;;;3.53;;
26486;SDS011;14425;56.136;40.360;2023-02-16T01:20:45;5.45;;;3.45;;
26486;SDS011;14425;56.136;40.360;2023-02-16T01:23:11;6.00;;;3.53;;
26486;SDS011;14425;56.136;40.360;2023-02-16T01:25:37;5.95;;;3.65;;
26486;SDS011;14425;56.136;40.360;2023-02-16T01:28:23;7.50;;;4.38;;
26486;SDS011;14425;56.136;40.360;2023-02-16T01:30:50;5.60;;;3.55;;
26486;SDS011;14425;56.136;40.360;2023-02-16T01:33:16;7.00;;;4.10;;
26486;SDS011;14425;56.136;40.360;2023-02-16T01:35:42;5.78;;;3.50;;
26486;SDS011;14425;56.136;40.360;2023-02-16T01:38:19;5.28;;;3.30;;
26486;SDS011;14425;56.136;40.360;2023-02-16T01:46:51;7.45;;;3.72;;
26486;SDS011;14425;56.136;40.360;2023-02-16T01:49:20;4.85;;;3.65;;
26486;SDS011;14425;56.136;40.360;2023-02-16T01:52:29;6.70;;;4.43;;
26486;SDS011;14425;56.136;40.360;2023-02-16T01:57:22;6.28;;;3.97;;
26486;SDS011;14425;56.136;40.360;2023-02-16T02:02:45;7.03;;;3.83;;
26486;SDS011;14425;56.136;40.360;2023-02-16T02:16:22;6.10;;;4.20;;
26486;SDS011;14425;56.136;40.360;2023-02-16T02:18:50;7.22;;;4.78;;
26486;SDS011;14425;56.136;40.360;2023-02-16T02:27:25;6.05;;;4.05;;
26486;SDS011;14425;56.136;40.360;2023-02-16T02:38:39;6.95;;;4.03;;
26486;SDS011;14425;56.136;40.360;2023-02-16T02:44:20;8.65;;;4.95;;
26486;SDS011;14425;56.136;40.360;2023-02-16T02:46:48;5.35;;;3.20;;
26486;SDS011;14425;56.136;40.360;2023-02-16T02:49:14;6.60;;;4.10;;
26486;SDS011;14425;56.136;40.360;2023-02-16T02:51:40;6.65;;;4.28;;
26486;SDS011;14425;56.136;40.360;2023-02-16T03:00:20;5.88;;;4.13;;
26486;SDS011;14425;56.136;40.360;2023-02-16T03:03:24;7.18;;;4.85;;
26486;SDS011;14425;56.136;40.360;2023-02-16T03:08:35;9.85;;;4.50;;
26486;SDS011;14425;56.136;40.360;2023-02-16T03:11:16;8.93;;;5.05;;
26486;SDS011;14425;56.136;40.360;2023-02-16T03:14:06;7.93;;;4.22;;
26486;SDS011;14425;56.136;40.360;2023-02-16T03:16:48;9.82;;;5.10;;
26486;SDS011;14425;56.136;40.360;2023-02-16T03:19:38;7.47;;;4.22;;
26486;SDS011;14425;56.136;40.360;2023-02-16T03:22:24;9.23;;;4.50;;
26486;SDS011;14425;56.136;40.360;2023-02-16T03:25:08;8.45;;;4.10;;
26486;SDS011;14425;56.136;40.360;2023-02-16T03:27:52;9.13;;;4.80;;
26486;SDS011;14425;56.136;40.360;2023-02-16T03:30:40;6.65;;;4.63;;
26486;SDS011;14425;56.136;40.360;2023-02-16T03:33:07;8.40;;;4.75;;
26486;SDS011;14425;56.136;40.360;2023-02-16T03:35:33;7.88;;;4.97;;
26486;SDS011;14425;56.136;40.360;2023-02-16T03:37:59;8.45;;;5.15;;
26486;SDS011;14425;56.136;40.360;2023-02-16T03:40:25;9.32;;;4.85;;
26486;SDS011;14425;56.136;40.360;2023-02-16T03:42:58;8.93;;;4.75;;
26486;SDS011;14425;56.136;40.360;2023-02-16T03:45:26;7.93;;;4.60;;
26486;SDS011;14425;56.136;40.360;2023-02-16T03:47:52;7.15;;;4.30;;
26486;SDS011;14425;56.136;40.360;2023-02-16T03:50:18;9.13;;;5.13;;
26486;SDS011;14425;56.136;40.360;2023-02-16T03:52:43;8.50;;;5.00;;
26486;SDS011;14425;56.136;40.360;2023-02-16T03:55:09;10.30;;;5.32;;
26486;SDS011;14425;56.136;40.360;2023-02-16T03:57:34;8.45;;;4.28;;
26486;SDS011;14425;56.136;40.360;2023-02-16T04:00:00;8.65;;;4.82;;
26486;SDS011;14425;56.136;40.360;2023-02-16T04:02:26;7.35;;;4.60;;
26486;SDS011;14425;56.136;40.360;2023-02-16T04:04:52;7.22;;;4.25;;
26486;SDS011;14425;56.136;40.360;2023-02-16T04:07:18;7.30;;;4.95;;
26486;SDS011;14425;56.136;40.360;2023-02-16T04:09:43;7.32;;;4.40;;
26486;SDS011;14425;56.136;40.360;2023-02-16T04:12:10;8.45;;;5.20;;
26486;SDS011;14425;56.136;40.360;2023-02-16T04:14:55;6.60;;;4.57;;
26486;SDS011;14425;56.136;40.360;2023-02-16T04:17:20;6.82;;;4.15;;
26486;SDS011;14425;56.136;40.360;2023-02-16T04:19:45;9.00;;;5.40;;
26486;SDS011;14425;56.136;40.360;2023-02-16T04:22:11;7.63;;;4.82;;
26486;SDS011;14425;56.136;40.360;2023-02-16T04:24:36;7.22;;;5.20;;
26486;SDS011;14425;56.136;40.360;2023-02-16T04:27:02;8.10;;;4.85;;
26486;SDS011;14425;56.136;40.360;2023-02-16T04:29:28;8.30;;;5.00;;
26486;SDS011;14425;56.136;40.360;2023-02-16T04:31:54;8.45;;;5.05;;
26486;SDS011;14425;56.136;40.360;2023-02-16T04:34:20;9.02;;;5.32;;
26486;SDS011;14425;56.136;40.360;2023-02-16T04:36:45;7.88;;;5.03;;
26486;SDS011;14425;56.136;40.360;2023-02-16T04:39:11;11.43;;;5.93;;
26486;SDS011;14425;56.136;40.360;2023-02-16T04:41:36;6.75;;;4.47;;
26486;SDS011;14425;56.136;40.360;2023-02-16T04:44:02;11.38;;;5.50;;
26486;SDS011;14425;56.136;40.360;2023-02-16T04:46:27;8.35;;;4.45;;
26486;SDS011;14425;56.136;40.360;2023-02-16T04:48:54;6.65;;;4.78;;
26486;SDS011;14425;56.136;40.360;2023-02-16T04:51:20;8.77;;;4.78;;
26486;SDS011;14425;56.136;40.360;2023-02-16T04:53:46;8.43;;;5.20;;
26486;SDS011;14425;56.136;40.360;2023-02-16T04:56:11;6.07;;;4.15;;
26486;SDS011;14425;56.136;40.360;2023-02-16T04:58:37;8.10;;;4.72;;
26486;SDS011;14425;56.136;40.360;2023-02-16T05:01:03;8.13;;;4.93;;
26486;SDS011;14425;56.136;40.360;2023-02-16T05:03:28;8.85;;;4.93;;
26486;SDS011;14425;56.136;40.360;2023-02-16T05:05:54;8.52;;;5.38;;
26486;SDS011;14425;56.136;40.360;2023-02-16T05:08:19;6.85;;;4.22;;
26486;SDS011;14425;56.136;40.360;2023-02-16T05:10:45;8.88;;;5.45;;
26486;SDS011;14425;56.136;40.360;2023-02-16T05:13:33;9.82;;;4.80;;
26486;SDS011;14425;56.136;40.360;2023-02-16T05:16:19;9.43;;;5.22;;
26486;SDS011;14425;56.136;40.360;2023-02-16T05:18:46;7.72;;;5.25;;
26486;SDS011;14425;56.136;40.360;2023-02-16T05:21:14;8.40;;;5.10;;
26486;SDS011;14425;56.136;40.360;2023-02-16T05:23:54;7.50;;;5.35;;
26486;SDS011;14425;56.136;40.360;2023-02-16T05:26:20;8.88;;;5.45;;
26486;SDS011;14425;56.136;40.360;2023-02-16T05:28:46;6.30;;;4.68;;
26486;SDS011;14425;56.136;40.360;2023-02-16T05:31:11;7.32;;;4.63;;
26486;SDS011;14425;56.136;40.360;2023-02-16T05:33:37;8.60;;;4.93;;
26486;SDS011;14425;56.136;40.360;2023-02-16T05:36:02;9.95;;;5.43;;
26486;SDS011;14425;56.136;40.360;2023-02-16T05:38:28;7.95;;;5.25;;
26486;SDS011;14425;56.136;40.360;2023-02-16T05:40:53;8.98;;;5.35;;
26486;SDS011;14425;56.136;40.360;2023-02-16T05:43:19;6.30;;;4.68;;
26486;SDS011;14425;56.136;40.360;2023-02-16T05:45:44;8.05;;;4.50;;
26486;SDS011;14425;56.136;40.360;2023-02-16T05:48:10;7.10;;;4.28;;
26486;SDS011;14425;56.136;40.360;2023-02-16T05:50:35;6.03;;;4.43;;
26486;SDS011;14425;56.136;40.360;2023-02-16T05:53:01;6.35;;;4.90;;
26486;SDS011;14425;56.136;40.360;2023-02-16T05:55:27;7.65;;;4.85;;
26486;SDS011;14425;56.136;40.360;2023-02-16T05:57:52;7.32;;;4.85;;
26486;SDS011;14425;56.136;40.360;2023-02-16T06:00:18;10.10;;;5.78;;
26486;SDS011;14425;56.136;40.360;2023-02-16T06:02:44;9.80;;;5.57;;
26486;SDS011;14425;56.136;40.360;2023-02-16T06:05:09;10.52;;;4.88;;
26486;SDS011;14425;56.136;40.360;2023-02-16T06:07:35;7.30;;;4.88;;
26486;SDS011;14425;56.136;40.360;2023-02-16T06:10:00;7.45;;;4.95;;
26486;SDS011;14425;56.136;40.360;2023-02-16T06:12:26;7.07;;;4.53;;
26486;SDS011;14425;56.136;40.360;2023-02-16T06:14:51;11.25;;;5.60;;
26486;SDS011;14425;56.136;40.360;2023-02-16T06:17:17;7.65;;;4.97;;
26486;SDS011;14425;56.136;40.360;2023-02-16T06:19:42;8.02;;;5.00;;
26486;SDS011;14425;56.136;40.360;2023-02-16T06:22:08;6.05;;;4.40;;
26486;SDS011;14425;56.136;40.360;2023-02-16T06:24:33;7.22;;;5.20;;
26486;SDS011;14425;56.136;40.360;2023-02-16T06:26:59;7.50;;;4.38;;
26486;SDS011;14425;56.136;40.360;2023-02-16T06:29:24;7.32;;;4.85;;
26486;SDS011;14425;56.136;40.360;2023-02-16T06:31:50;7.90;;;4.35;;
26486;SDS011;14425;56.136;40.360;2023-02-16T06:34:16;7.75;;;4.47;;
26486;SDS011;14425;56.136;40.360;2023-02-16T06:36:41;5.57;;;4.00;;
26486;SDS011;14425;56.136;40.360;2023-02-16T06:39:07;6.65;;;4.20;;
26486;SDS011;14425;56.136;40.360;2023-02-16T06:41:32;5.68;;;4.60;;
26486;SDS011;14425;56.136;40.360;2023-02-16T06:44:08;9.52;;;4.85;;
26486;SDS011;14425;56.136;40.360;2023-02-16T06:46:39;8.00;;;4.60;;
26486;SDS011;14425;56.136;40.360;2023-02-16T06:49:12;10.70;;;5.88;;
26486;SDS011;14425;56.136;40.360;2023-02-16T06:51:39;8.80;;;5.47;;
26486;SDS011;14425;56.136;40.360;2023-02-16T06:54:05;7.45;;;4.57;;
26486;SDS011;14425;56.136;40.360;2023-02-16T06:56:31;9.88;;;5.20;;
26486;SDS011;14425;56.136;40.360;2023-02-16T06:58:56;6.97;;;4.35;;
26486;SDS011;14425;56.136;40.360;2023-02-16T07:01:22;10.70;;;5.10;;
26486;SDS011;14425;56.136;40.360;2023-02-16T07:03:50;6.85;;;4.53;;
26486;SDS011;14425;56.136;40.360;2023-02-16T07:06:17;5.43;;;4.40;;
26486;SDS011;14425;56.136;40.360;2023-02-16T07:08:44;6.75;;;5.00;;
26486;SDS011;14425;56.136;40.360;2023-02-16T07:11:10;9.45;;;5.55;;
26486;SDS011;14425;56.136;40.360;2023-02-16T07:13:36;10.75;;;4.97;;
26486;SDS011;14425;56.136;40.360;2023-02-16T07:16:02;7.97;;;5.35;;
26486;SDS011;14425;56.136;40.360;2023-02-16T07:18:28;11.43;;;5.35;;
26486;SDS011;14425;56.136;40.360;2023-02-16T07:20:54;10.30;;;5.65;;
26486;SDS011;14425;56.136;40.360;2023-02-16T07:23:19;8.52;;;5.10;;
26486;SDS011;14425;56.136;40.360;2023-02-16T07:25:45;8.73;;;5.60;;
26486;SDS011;14425;56.136;40.360;2023-02-16T07:28:11;9.05;;;5.05;;
26486;SDS011;14425;56.136;40.360;2023-02-16T07:30:37;10.32;;;5.57;;
26486;SDS011;14425;56.136;40.360;2023-02-16T07:33:03;8.13;;;5.15;;
26486;SDS011;14425;56.136;40.360;2023-02-16T07:35:28;8.35;;;5.13;;
26486;SDS011;14425;56.136;40.360;2023-02-16T07:37:54;7.97;;;5.53;;
26486;SDS011;14425;56.136;40.360;2023-02-16T07:40:19;7.97;;;4.88;;
26486;SDS011;14425;56.136;40.360;2023-02-16T07:42:45;7.82;;;5.03;;
26486;SDS011;14425;56.136;40.360;2023-02-16T07:45:11;7.63;;;5.10;;
26486;SDS011;14425;56.136;40.360;2023-02-16T07:47:36;6.18;;;4.43;;
26486;SDS011;14425;56.136;40.360;2023-02-16T07:50:02;8.98;;;6.03;;
26486;SDS011;14425;56.136;40.360;2023-02-16T07:52:29;8.07;;;5.38;;
26486;SDS011;14425;56.136;40.360;2023-02-16T07:54:58;8.10;;;5.43;;
26486;SDS011;14425;56.136;40.360;2023-02-16T07:57:24;7.30;;;4.95;;
26486;SDS011;14425;56.136;40.360;2023-02-16T07:59:50;8.20;;;5.18;;
26486;SDS011;14425;56.136;40.360;2023-02-16T08:02:17;11.60;;;6.45;;
26486;SDS011;14425;56.136;40.360;2023-02-16T08:04:44;8.85;;;5.55;;
26486;SDS011;14425;56.136;40.360;2023-02-16T08:07:11;8.27;;;5.82;;
26486;SDS011;14425;56.136;40.360;2023-02-16T08:09:37;8.13;;;5.45;;
26486;SDS011;14425;56.136;40.360;2023-02-16T08:12:04;8.10;;;5.95;;
26486;SDS011;14425;56.136;40.360;2023-02-16T08:14:32;7.15;;;5.05;;
26486;SDS011;14425;56.136;40.360;2023-02-16T08:16:58;7.22;;;4.72;;
26486;SDS011;14425;56.136;40.360;2023-02-16T08:19:23;6.80;;;4.80;;
26486;SDS011;14425;56.136;40.360;2023-02-16T08:21:49;8.23;;;5.50;;
26486;SDS011;14425;56.136;40.360;2023-02-16T08:24:14;8.32;;;5.35;;
26486;SDS011;14425;56.136;40.360;2023-02-16T08:26:40;10.52;;;6.43;;
26486;SDS011;14425;56.136;40.360;2023-02-16T08:29:07;10.57;;;6.18;;
26486;SDS011;14425;56.136;40.360;2023-02-16T08:31:34;7.35;;;5.55;;
26486;SDS011;14425;56.136;40.360;2023-02-16T08:34:01;10.73;;;5.68;;
26486;SDS011;14425;56.136;40.360;2023-02-16T08:36:29;6.22;;;4.72;;
26486;SDS011;14425;56.136;40.360;2023-02-16T08:38:57;9.13;;;6.22;;
26486;SDS011;14425;56.136;40.360;2023-02-16T08:41:27;7.75;;;5.68;;
26486;SDS011;14425;56.136;40.360;2023-02-16T08:43:56;9.18;;;6.00;;
26486;SDS011;14425;56.136;40.360;2023-02-16T08:46:21;8.27;;;4.90;;
26486;SDS011;14425;56.136;40.360;2023-02-16T08:48:47;9.00;;;6.13;;
26486;SDS011;14425;56.136;40.360;2023-02-16T08:51:13;12.68;;;5.15;;
26486;SDS011;14425;56.136;40.360;2023-02-16T08:53:40;8.25;;;5.80;;
26486;SDS011;14425;56.136;40.360;2023-02-16T08:56:05;8.32;;;5.18;;
26486;SDS011;14425;56.136;40.360;2023-02-16T08:58:35;7.30;;;5.22;;
26486;SDS011;14425;56.136;40.360;2023-02-16T09:01:05;7.45;;;5.13;;
26486;SDS011;14425;56.136;40.360;2023-02-16T09:03:32;5.17;;;4.07;;
26486;SDS011;14425;56.136;40.360;2023-02-16T09:06:00;8.27;;;5.35;;
26486;SDS011;14425;56.136;40.360;2023-02-16T09:08:27;9.75;;;5.53;;
26486;SDS011;14425;56.136;40.360;2023-02-16T09:10:54;9.40;;;5.35;;
26486;SDS011;14425;56.136;40.360;2023-02-16T09:13:19;8.02;;;5.20;;
26486;SDS011;14425;56.136;40.360;2023-02-16T09:15:45;6.25;;;4.65;;
26486;SDS011;14425;56.136;40.360;2023-02-16T09:18:12;8.95;;;4.88;;
26486;SDS011;14425;56.136;40.360;2023-02-16T09:20:39;7.18;;;5.25;;
26486;SDS011;14425;56.136;40.360;2023-02-16T09:23:06;6.57;;;4.65;;
26486;SDS011;14425;56.136;40.360;2023-02-16T09:25:33;8.27;;;5.60;;
26486;SDS011;14425;56.136;40.360;2023-02-16T09:28:00;9.07;;;5.82;;
26486;SDS011;14425;56.136;40.360;2023-02-16T09:30:26;5.28;;;4.38;;
26486;SDS011;14425;56.136;40.360;2023-02-16T09:32:52;7.80;;;4.65;;
26486;SDS011;14425;56.136;40.360;2023-02-16T09:35:18;7.30;;;5.00;;
26486;SDS011;14425;56.136;40.360;2023-02-16T09:37:44;4.93;;;4.00;;
26486;SDS011;14425;56.136;40.360;2023-02-16T09:40:11;7.00;;;4.60;;
26486;SDS011;14425;56.136;40.360;2023-02-16T09:45:08;7.53;;;4.80;;
26486;SDS011;14425;56.136;40.360;2023-02-16T09:47:39;6.75;;;5.00;;
26486;SDS011;14425;56.136;40.360;2023-02-16T09:50:14;6.40;;;4.63;;
26486;SDS011;14425;56.136;40.360;2023-02-16T09:53:05;7.18;;;5.28;;
26486;SDS011;14425;56.136;40.360;2023-02-16T09:56:17;6.25;;;4.60;;
26486;SDS011;14425;56.136;40.360;2023-02-16T09:58:52;7.78;;;5.13;;
26486;SDS011;14425;56.136;40.360;2023-02-16T10:04:23;6.75;;;4.93;;
26486;SDS011;14425;56.136;40.360;2023-02-16T10:07:30;7.30;;;4.65;;
26486;SDS011;14425;56.136;40.360;2023-02-16T10:10:05;7.18;;;5.32;;
26486;SDS011;14425;56.136;40.360;2023-02-16T10:12:35;8.70;;;5.40;;
26486;SDS011;14425;56.136;40.360;2023-02-16T10:15:14;7.82;;;5.25;;
26486;SDS011;14425;56.136;40.360;2023-02-16T10:17:45;8.55;;;5.93;;
26486;SDS011;14425;56.136;40.360;2023-02-16T10:20:14;7.93;;;5.60;;
26486;SDS011;14425;56.136;40.360;2023-02-16T10:25:36;4.93;;;3.88;;
26486;SDS011;14425;56.136;40.360;2023-02-16T10:28:18;7.28;;;5.65;;
26486;SDS011;14425;56.136;40.360;2023-02-16T10:31:00;7.60;;;5.32;;
26486;SDS011;14425;56.136;40.360;2023-02-16T10:36:06;8.90;;;5.28;;
26486;SDS011;14425;56.136;40.360;2023-02-16T10:41:43;8.73;;;5.75;;
26486;SDS011;14425;56.136;40.360;2023-02-16T10:44:34;9.63;;;6.30;;
26486;SDS011;14425;56.136;40.360;2023-02-16T10:47:04;8.40;;;5.88;;
26486;SDS011;14425;56.136;40.360;2023-02-16T10:49:38;6.22;;;5.25;;
26486;SDS011;14425;56.136;40.360;2023-02-16T10:52:03;6.80;;;5.00;;
26486;SDS011;14425;56.136;40.360;2023-02-16T10:54:32;10.18;;;6.05;;
26486;SDS011;14425;56.136;40.360;2023-02-16T10:57:01;7.13;;;5.78;;
26486;SDS011;14425;56.136;40.360;2023-02-16T11:04:55;6.38;;;4.65;;
26486;SDS011;14425;56.136;40.360;2023-02-16T11:07:26;8.82;;;4.68;;
26486;SDS011;14425;56.136;40.360;2023-02-16T11:09:54;6.38;;;5.13;;
26486;SDS011;14425;56.136;40.360;2023-02-16T11:12:23;6.68;;;5.10;;
26486;SDS011;14425;56.136;40.360;2023-02-16T11:14:55;8.32;;;5.28;;
26486;SDS011;14425;56.136;40.360;2023-02-16T11:17:30;6.38;;;5.28;;
26486;SDS011;14425;56.136;40.360;2023-02-16T11:20:22;7.47;;;4.75;;
26486;SDS011;14425;56.136;40.360;2023-02-16T11:22:53;6.68;;;5.18;;
26486;SDS011;14425;56.136;40.360;2023-02-16T11:25:36;6.93;;;4.82;;
26486;SDS011;14425;56.136;40.360;2023-02-16T11:28:02;8.35;;;5.40;;
26486;SDS011;14425;56.136;40.360;2023-02-16T11:30:30;6.18;;;5.05;;
26486;SDS011;14425;56.136;40.360;2023-02-16T11:32:59;8.70;;;6.10;;
26486;SDS011;14425;56.136;40.360;2023-02-16T11:35:26;7.68;;;5.75;;
26486;SDS011;14425;56.136;40.360;2023-02-16T11:37:53;8.10;;;5.00;;
26486;SDS011;14425;56.136;40.360;2023-02-16T11:40:23;8.27;;;6.05;;
26486;SDS011;14425;56.136;40.360;2023-02-16T11:42:53;7.28;;;5.22;;
26486;SDS011;14425;56.136;40.360;2023-02-16T11:45:23;8.15;;;5.10;;
26486;SDS011;14425;56.136;40.360;2023-02-16T11:47:59;5.72;;;4.90;;
26486;SDS011;14425;56.136;40.360;2023-02-16T11:50:34;8.57;;;4.90;;
26486;SDS011;14425;56.136;40.360;2023-02-16T11:55:34;11.05;;;5.32;;
26486;SDS011;14425;56.136;40.360;2023-02-16T11:58:21;7.75;;;5.63;;
26486;SDS011;14425;56.136;40.360;2023-02-16T12:09:20;6.63;;;5.28;;
26486;SDS011;14425;56.136;40.360;2023-02-16T12:18:24;8.23;;;5.32;;
26486;SDS011;14425;56.136;40.360;2023-02-16T12:45:31;13.13;;;7.57;;
26486;SDS011;14425;56.136;40.360;2023-02-16T12:50:35;11.88;;;6.90;;
26486;SDS011;14425;56.136;40.360;2023-02-16T12:53:14;8.70;;;6.20;;
26486;SDS011;14425;56.136;40.360;2023-02-16T12:55:47;10.00;;;5.68;;
26486;SDS011;14425;56.136;40.360;2023-02-16T13:00:48;9.48;;;5.75;;
26486;SDS011;14425;56.136;40.360;2023-02-16T13:05:52;8.02;;;5.07;;
26486;SDS011;14425;56.136;40.360;2023-02-16T13:13:26;6.63;;;4.97;;
26486;SDS011;14425;56.136;40.360;2023-02-16T13:16:09;7.25;;;5.32;;
26486;SDS011;14425;56.136;40.360;2023-02-16T13:18:41;8.32;;;5.38;;
26486;SDS011;14425;56.136;40.360;2023-02-16T13:21:10;8.68;;;6.05;;
26486;SDS011;14425;56.136;40.360;2023-02-16T13:45:59;8.00;;;5.05;;
26486;SDS011;14425;56.136;40.360;2023-02-16T13:48:35;6.82;;;4.03;;
26486;SDS011;14425;56.136;40.360;2023-02-16T13:51:07;8.35;;;5.30;;
26486;SDS011;14425;56.136;40.360;2023-02-16T13:53:38;7.65;;;4.93;;
26486;SDS011;14425;56.136;40.360;2023-02-16T13:58:48;7.38;;;4.95;;
26486;SDS011;14425;56.136;40.360;2023-02-16T14:03:52;7.00;;;4.63;;
26486;SDS011;14425;56.136;40.360;2023-02-16T14:06:34;6.85;;;4.55;;
26486;SDS011;14425;56.136;40.360;2023-02-16T14:19:52;12.63;;;5.65;;
26486;SDS011;14425;56.136;40.360;2023-02-16T14:22:22;10.02;;;6.70;;
26486;SDS011;14425;56.136;40.360;2023-02-16T14:24:55;11.57;;;7.38;;
26486;SDS011;14425;56.136;40.360;2023-02-16T14:27:42;10.95;;;6.90;;
26486;SDS011;14425;56.136;40.360;2023-02-16T14:30:13;8.77;;;6.35;;
26486;SDS011;14425;56.136;40.360;2023-02-16T14:36:23;11.88;;;6.43;;
26486;SDS011;14425;56.136;40.360;2023-02-16T14:41:01;12.13;;;6.25;;
26486;SDS011;14425;56.136;40.360;2023-02-16T14:43:43;9.10;;;6.43;;
26486;SDS011;14425;56.136;40.360;2023-02-16T14:57:47;8.80;;;6.22;;
26486;SDS011;14425;56.136;40.360;2023-02-16T15:02:25;40.83;;;14.02;;
26486;SDS011;14425;56.136;40.360;2023-02-16T15:04:52;22.33;;;10.60;;
26486;SDS011;14425;56.136;40.360;2023-02-16T15:07:18;32.53;;;15.55;;
26486;SDS011;14425;56.136;40.360;2023-02-16T15:09:45;19.42;;;10.93;;
26486;SDS011;14425;56.136;40.360;2023-02-16T15:12:21;16.17;;;8.07;;
26486;SDS011;14425;56.136;40.360;2023-02-16T15:14:58;19.10;;;8.32;;
26486;SDS011;14425;56.136;40.360;2023-02-16T15:20:30;14.82;;;8.05;;
26486;SDS011;14425;56.136;40.360;2023-02-16T15:23:00;12.77;;;8.02;;
26486;SDS011;14425;56.136;40.360;2023-02-16T15:25:32;16.55;;;9.05;;
26486;SDS011;14425;56.136;40.360;2023-02-16T15:28:03;16.35;;;7.45;;
26486;SDS011;14425;56.136;40.360;2023-02-16T15:30:36;12.95;;;6.82;;
26486;SDS011;14425;56.136;40.360;2023-02-16T15:33:13;14.60;;;7.50;;
26486;SDS011;14425;56.136;40.360;2023-02-16T15:41:32;23.52;;;8.48;;
26486;SDS011;14425;56.136;40.360;2023-02-16T15:43:58;14.30;;;7.82;;
26486;SDS011;14425;56.136;40.360;2023-02-16T15:46:30;15.02;;;8.48;;
26486;SDS011;14425;56.136;40.360;2023-02-16T15:49:37;14.90;;;7.97;;
26486;SDS011;14425;56.136;40.360;2023-02-16T15:51:56;13.13;;;7.13;;
26486;SDS011;14425;56.136;40.360;2023-02-16T15:54:24;17.20;;;8.85;;
26486;SDS011;14425;56.136;40.360;2023-02-16T15:57:09;13.93;;;7.95;;
26486;SDS011;14425;56.136;40.360;2023-02-16T16:02:23;18.23;;;8.13;;
26486;SDS011;14425;56.136;40.360;2023-02-16T16:04:57;12.35;;;7.10;;
26486;SDS011;14425;56.136;40.360;2023-02-16T16:07:27;12.95;;;7.28;;
26486;SDS011;14425;56.136;40.360;2023-02-16T16:09:57;17.57;;;8.33;;
26486;SDS011;14425;56.136;40.360;2023-02-16T16:12:24;16.77;;;8.25;;
26486;SDS011;14425;56.136;40.360;2023-02-16T16:14:54;13.82;;;8.20;;
26486;SDS011;14425;56.136;40.360;2023-02-16T16:17:27;14.88;;;7.05;;
26486;SDS011;14425;56.136;40.360;2023-02-16T16:19:55;11.90;;;6.45;;
26486;SDS011;14425;56.136;40.360;2023-02-16T16:22:42;17.17;;;8.07;;
26486;SDS011;14425;56.136;40.360;2023-02-16T16:27:53;14.80;;;8.52;;
26486;SDS011;14425;56.136;40.360;2023-02-16T16:32:44;12.88;;;7.78;;
26486;SDS011;14425;56.136;40.360;2023-02-16T16:35:20;14.18;;;7.43;;
26486;SDS011;14425;56.136;40.360;2023-02-16T16:37:50;19.63;;;8.60;;
26486;SDS011;14425;56.136;40.360;2023-02-16T16:43:04;15.27;;;7.88;;
26486;SDS011;14425;56.136;40.360;2023-02-16T16:45:41;19.73;;;10.63;;
26486;SDS011;14425;56.136;40.360;2023-02-16T16:50:43;15.25;;;7.95;;
26486;SDS011;14425;56.136;40.360;2023-02-16T16:55:54;16.15;;;8.55;;
26486;SDS011;14425;56.136;40.360;2023-02-16T16:58:20;16.25;;;7.65;;
26486;SDS011;14425;56.136;40.360;2023-02-16T17:00:46;13.02;;;7.30;;
26486;SDS011;14425;56.136;40.360;2023-02-16T17:03:13;14.50;;;8.15;;
26486;SDS011;14425;56.136;40.360;2023-02-16T17:05:40;12.88;;;7.35;;
26486;SDS011;14425;56.136;40.360;2023-02-16T17:08:06;15.32;;;7.05;;
26486;SDS011;14425;56.136;40.360;2023-02-16T17:10:34;10.80;;;6.18;;
26486;SDS011;14425;56.136;40.360;2023-02-16T17:13:01;12.48;;;6.45;;
26486;SDS011;14425;56.136;40.360;2023-02-16T17:15:30;15.25;;;7.60;;
26486;SDS011;14425;56.136;40.360;2023-02-16T17:17:56;17.42;;;7.70;;
26486;SDS011;14425;56.136;40.360;2023-02-16T17:20:22;21.75;;;10.10;;
26486;SDS011;14425;56.136;40.360;2023-02-16T17:22:48;25.85;;;12.75;;
26486;SDS011;14425;56.136;40.360;2023-02-16T17:25:14;33.42;;;15.20;;
26486;SDS011;14425;56.136;40.360;2023-02-16T17:27:39;26.02;;;13.02;;
26486;SDS011;14425;56.136;40.360;2023-02-16T17:30:05;20.58;;;9.75;;
26486;SDS011;14425;56.136;40.360;2023-02-16T17:32:31;25.65;;;12.90;;
26486;SDS011;14425;56.136;40.360;2023-02-16T17:34:56;21.10;;;12.30;;
26486;SDS011;14425;56.136;40.360;2023-02-16T17:37:22;24.67;;;13.25;;
26486;SDS011;14425;56.136;40.360;2023-02-16T17:39:51;25.00;;;12.93;;
26486;SDS011;14425;56.136;40.360;2023-02-16T17:42:17;24.58;;;13.48;;
26486;SDS011;14425;56.136;40.360;2023-02-16T17:44:42;20.20;;;11.07;;
26486;SDS011;14425;56.136;40.360;2023-02-16T17:47:14;26.95;;;12.85;;
26486;SDS011;14425;56.136;40.360;2023-02-16T17:49:40;22.70;;;12.77;;
26486;SDS011;14425;56.136;40.360;2023-02-16T17:52:09;25.65;;;11.35;;
26486;SDS011;14425;56.136;40.360;2023-02-16T17:54:36;22.20;;;11.85;;
26486;SDS011;14425;56.136;40.360;2023-02-16T17:57:05;23.58;;;11.25;;
26486;SDS011;14425;56.136;40.360;2023-02-16T17:59:31;21.63;;;12.13;;
26486;SDS011;14425;56.136;40.360;2023-02-16T18:01:57;23.85;;;10.93;;
26486;SDS011;14425;56.136;40.360;2023-02-16T18:04:25;21.42;;;11.57;;
26486;SDS011;14425;56.136;40.360;2023-02-16T18:06:54;16.92;;;9.57;;
26486;SDS011;14425;56.136;40.360;2023-02-16T18:09:20;13.57;;;8.80;;
26486;SDS011;14425;56.136;40.360;2023-02-16T18:11:49;14.68;;;8.68;;
26486;SDS011;14425;56.136;40.360;2023-02-16T18:14:18;13.60;;;8.10;;
26486;SDS011;14425;56.136;40.360;2023-02-16T18:16:51;11.00;;;7.15;;
26486;SDS011;14425;56.136;40.360;2023-02-16T18:19:17;9.45;;;6.72;;